createdAt,value
2022-08-25T00:00:13.069Z,19.96
2022-08-25T00:02:39.770Z,20.00
2022-08-25T00:05:08.086Z,19.97
2022-08-25T00:07:37.048Z,19.91
2022-08-25T00:10:07.140Z,19.79
2022-08-25T00:12:35.473Z,19.68
2022-08-25T00:15:02.089Z,19.66
2022-08-25T00:17:29.574Z,19.57
2022-08-25T00:19:56.368Z,19.62
2022-08-25T00:22:23.196Z,19.72
2022-08-25T00:24:50.134Z,19.61
2022-08-25T00:27:18.416Z,19.59
2022-08-25T00:29:45.111Z,19.54
2022-08-25T00:32:13.568Z,19.60
2022-08-25T00:34:41.156Z,19.42
2022-08-25T00:37:11.981Z,19.45
2022-08-25T00:39:40.987Z,19.46
2022-08-25T00:42:15.788Z,19.37
2022-08-25T00:44:44.073Z,19.36
2022-08-25T00:47:12.668Z,19.17
2022-08-25T00:49:44.223Z,19.18
2022-08-25T00:52:21.193Z,19.08
2022-08-25T00:55:07.925Z,19.12
2022-08-25T00:57:43.315Z,19.05
2022-08-25T01:00:19.916Z,18.92
2022-08-25T01:02:47.042Z,18.93
2022-08-25T01:05:15.062Z,18.97
2022-08-25T01:07:44.701Z,19.06
2022-08-25T01:10:13.841Z,18.97
2022-08-25T01:12:41.491Z,18.96
2022-08-25T01:15:10.650Z,19.01
2022-08-25T01:17:53.429Z,18.93
2022-08-25T01:20:24.075Z,18.96
2022-08-25T01:22:57.855Z,18.93
2022-08-25T01:25:53.938Z,18.91
2022-08-25T01:28:21.413Z,18.77
2022-08-25T01:30:50.315Z,18.63
2022-08-25T01:33:17.710Z,18.61
2022-08-25T01:35:45.555Z,18.49
2022-08-25T01:38:13.135Z,18.46
2022-08-25T01:40:43.011Z,18.30
2022-08-25T01:43:16.260Z,18.41
2022-08-25T01:45:46.408Z,18.50
2022-08-25T01:48:14.140Z,18.27
2022-08-25T01:50:42.446Z,18.40
2022-08-25T01:53:40.019Z,18.26
2022-08-25T01:56:16.097Z,18.34
2022-08-25T01:58:46.328Z,18.38
2022-08-25T02:01:16.297Z,18.13
2022-08-25T02:03:46.355Z,17.99
2022-08-25T02:06:17.314Z,18.05
2022-08-25T02:08:44.335Z,17.87
2022-08-25T02:11:14.737Z,17.74
2022-08-25T02:13:43.275Z,17.89
2022-08-25T02:16:17.969Z,17.97
2022-08-25T02:18:46.541Z,18.11
2022-08-25T02:21:15.697Z,18.01
2022-08-25T02:23:44.281Z,18.11
2022-08-25T02:26:12.731Z,18.11
2022-08-25T02:28:40.893Z,18.04
2022-08-25T02:31:07.719Z,17.98
2022-08-25T02:33:34.377Z,17.69
2022-08-25T02:36:03.114Z,17.85
2022-08-25T02:38:33.096Z,17.74
2022-08-25T02:41:02.401Z,17.86
2022-08-25T02:43:31.202Z,17.94
2022-08-25T02:46:00.267Z,17.94
2022-08-25T02:48:28.739Z,17.97
2022-08-25T02:50:55.836Z,18.02
2022-08-25T02:53:22.620Z,18.04
2022-08-25T02:55:51.284Z,18.01
2022-08-25T02:58:18.452Z,18.02
2022-08-25T03:00:46.914Z,17.87
2022-08-25T03:03:14.140Z,17.91
2022-08-25T03:05:41.102Z,17.88
2022-08-25T03:08:09.401Z,17.86
2022-08-25T03:10:37.855Z,17.86
2022-08-25T03:13:05.302Z,17.99
2022-08-25T03:15:33.564Z,17.84
2022-08-25T03:18:02.300Z,17.80
2022-08-25T03:20:30.692Z,17.79
2022-08-25T03:22:57.547Z,17.60
2022-08-25T03:25:44.314Z,17.55
2022-08-25T03:28:11.855Z,17.48
2022-08-25T03:30:39.259Z,17.51
2022-08-25T03:33:06.789Z,17.52
2022-08-25T03:35:33.727Z,17.35
2022-08-25T03:38:01.649Z,17.41
2022-08-25T03:40:30.500Z,17.39
2022-08-25T03:42:59.705Z,17.40
2022-08-25T03:45:27.215Z,17.39
2022-08-25T03:47:55.325Z,17.34
2022-08-25T03:50:25.078Z,17.28
2022-08-25T03:52:54.122Z,17.24
2022-08-25T03:55:22.959Z,17.24
2022-08-25T03:57:49.923Z,17.35
2022-08-25T04:00:17.694Z,17.29
2022-08-25T04:02:45.985Z,17.20
2022-08-25T04:05:13.856Z,17.28
2022-08-25T04:07:43.140Z,17.26
2022-08-25T04:10:11.165Z,17.26
2022-08-25T04:12:38.537Z,17.26
2022-08-25T04:15:06.345Z,17.22
2022-08-25T04:17:33.918Z,17.36
2022-08-25T04:20:02.504Z,17.34
2022-08-25T04:22:31.257Z,17.28
2022-08-25T04:25:01.017Z,17.26
2022-08-25T04:27:27.988Z,17.14
2022-08-25T04:29:55.188Z,17.05
2022-08-25T04:32:23.073Z,17.13
2022-08-25T04:34:50.197Z,17.05
2022-08-25T04:37:17.095Z,17.10
2022-08-25T04:39:44.008Z,17.03
2022-08-25T04:42:11.651Z,17.07
2022-08-25T04:44:39.136Z,17.08
2022-08-25T04:47:06.239Z,17.11
2022-08-25T04:49:33.247Z,17.14
2022-08-25T04:52:00.301Z,17.16
2022-08-25T04:54:28.632Z,17.30
2022-08-25T04:56:59.189Z,17.20
2022-08-25T04:59:29.433Z,17.25
2022-08-25T05:01:59.490Z,17.38
2022-08-25T05:04:28.311Z,17.40
2022-08-25T05:06:56.942Z,17.36
2022-08-25T05:09:25.432Z,17.40
2022-08-25T05:11:53.504Z,17.46
2022-08-25T05:14:26.160Z,17.51
2022-08-25T05:16:53.774Z,17.54
2022-08-25T05:19:20.435Z,17.57
2022-08-25T05:21:48.058Z,17.61
2022-08-25T05:24:15.744Z,17.73
2022-08-25T05:26:44.283Z,17.73
2022-08-25T05:29:12.082Z,17.72
2022-08-25T05:31:43.106Z,17.82
2022-08-25T05:34:12.438Z,17.93
2022-08-25T05:36:43.597Z,18.03
2022-08-25T05:39:11.246Z,18.07
2022-08-25T05:41:38.478Z,18.17
2022-08-25T05:44:06.164Z,18.19
2022-08-25T05:46:33.123Z,18.22
2022-08-25T05:49:00.530Z,18.25
2022-08-25T05:51:27.431Z,18.41
2022-08-25T05:53:54.727Z,18.39
2022-08-25T05:56:22.604Z,18.41
2022-08-25T05:58:50.426Z,18.56
2022-08-25T06:01:45.348Z,18.49
2022-08-25T06:04:13.309Z,18.68
2022-08-25T06:06:40.934Z,18.77
2022-08-25T06:09:09.206Z,18.86
2022-08-25T06:11:38.316Z,18.97
2022-08-25T06:14:06.630Z,19.15
2022-08-25T06:16:33.645Z,19.21
2022-08-25T06:19:01.465Z,19.38
2022-08-25T06:21:29.783Z,19.53
2022-08-25T06:23:57.861Z,19.59
2022-08-25T06:26:24.796Z,19.68
2022-08-25T06:28:52.296Z,19.88
2022-08-25T06:31:20.691Z,19.92
2022-08-25T06:33:47.395Z,20.01
2022-08-25T06:36:15.766Z,20.20
2022-08-25T06:38:42.348Z,20.22
2022-08-25T06:41:13.034Z,20.46
2022-08-25T06:43:48.057Z,20.62
2022-08-25T06:46:34.726Z,20.81
2022-08-25T06:49:05.547Z,21.03
2022-08-25T06:51:36.231Z,21.10
2022-08-25T06:54:05.002Z,21.26
2022-08-25T06:56:32.041Z,21.35
2022-08-25T06:59:01.109Z,21.44
2022-08-25T07:01:27.878Z,21.57
2022-08-25T07:03:57.890Z,21.62
2022-08-25T07:06:25.172Z,21.83
2022-08-25T07:08:51.836Z,21.79
2022-08-25T07:11:21.361Z,21.94
2022-08-25T07:13:48.697Z,22.00
2022-08-25T07:16:16.121Z,22.17
2022-08-25T07:18:44.173Z,22.32
2022-08-25T07:21:33.639Z,22.50
2022-08-25T07:24:06.277Z,22.66
2022-08-25T07:26:38.483Z,22.72
2022-08-25T07:29:14.447Z,22.79
2022-08-25T07:31:41.762Z,22.95
2022-08-25T07:34:28.497Z,22.99
2022-08-25T07:36:57.152Z,23.14
2022-08-25T07:39:25.381Z,23.20
2022-08-25T07:41:53.156Z,23.28
2022-08-25T07:44:21.701Z,23.31
2022-08-25T07:46:50.310Z,23.20
2022-08-25T07:49:23.252Z,23.45
2022-08-25T07:52:05.427Z,23.47
2022-08-25T07:54:35.240Z,23.57
2022-08-25T07:57:03.852Z,23.87
2022-08-25T07:59:33.465Z,23.90
2022-08-25T08:02:16.137Z,24.07
2022-08-25T08:04:49.281Z,24.18
2022-08-25T08:07:24.081Z,23.97
2022-08-25T08:10:33.186Z,24.09
2022-08-25T08:12:56.893Z,24.04
2022-08-25T08:15:23.798Z,24.35
2022-08-25T08:17:51.481Z,24.53
2022-08-25T08:20:23.424Z,24.69
2022-08-25T08:22:51.524Z,24.59
2022-08-25T08:25:21.597Z,24.64
2022-08-25T08:27:59.377Z,24.59
2022-08-25T08:30:26.656Z,24.73
2022-08-25T08:33:19.620Z,24.87
2022-08-25T08:35:41.908Z,25.08
2022-08-25T08:38:14.703Z,24.94
2022-08-25T08:41:23.238Z,25.05
2022-08-25T08:43:57.034Z,25.18
2022-08-25T08:46:26.255Z,25.22
2022-08-25T08:49:01.817Z,25.41
2022-08-25T08:51:33.423Z,25.45
2022-08-25T08:54:21.487Z,25.48
2022-08-25T08:56:53.524Z,25.58
2022-08-25T08:59:30.075Z,25.69
2022-08-25T09:02:04.212Z,25.82
2022-08-25T09:05:05.510Z,25.94
2022-08-25T09:07:47.918Z,26.11
2022-08-25T09:10:17.227Z,26.23
2022-08-25T09:12:55.362Z,26.25
2022-08-25T09:15:49.776Z,26.16
2022-08-25T09:18:31.821Z,26.12
2022-08-25T09:21:21.925Z,26.02
2022-08-25T09:24:16.792Z,26.13
2022-08-25T09:26:59.047Z,26.32
2022-08-25T09:29:35.688Z,26.62
2022-08-25T09:32:06.921Z,26.85
2022-08-25T09:34:40.436Z,26.97
2022-08-25T09:37:08.275Z,26.75
2022-08-25T09:39:36.762Z,27.04
2022-08-25T09:42:03.880Z,27.26
2022-08-25T09:44:34.860Z,27.45
2022-08-25T09:47:20.148Z,27.49
2022-08-25T09:49:58.032Z,27.68
2022-08-25T09:52:41.702Z,27.58
2022-08-25T09:55:26.582Z,27.66
2022-08-25T09:57:57.008Z,27.65
2022-08-25T10:00:33.833Z,27.49
2022-08-25T10:03:10.843Z,27.70
2022-08-25T10:06:00.506Z,27.51
2022-08-25T10:08:37.747Z,27.65
2022-08-25T10:11:14.727Z,27.71
2022-08-25T10:13:47.174Z,27.94
2022-08-25T10:16:36.243Z,28.12
2022-08-25T10:19:28.951Z,28.04
2022-08-25T10:22:11.172Z,28.06
2022-08-25T10:24:43.854Z,27.96
2022-08-25T10:27:28.743Z,27.93
2022-08-25T10:30:19.640Z,27.99
2022-08-25T10:33:03.943Z,28.22
2022-08-25T10:36:09.302Z,28.19
2022-08-25T10:38:59.002Z,28.16
2022-08-25T10:42:03.592Z,27.97
2022-08-25T10:45:16.807Z,28.07
2022-08-25T10:48:03.875Z,27.87
2022-08-25T10:51:13.590Z,27.62
2022-08-25T10:54:02.414Z,27.65
2022-08-25T10:56:42.517Z,27.70
2022-08-25T10:59:28.154Z,27.61
2022-08-25T11:02:13.582Z,27.71
2022-08-25T11:04:47.190Z,27.84
2022-08-25T11:07:20.364Z,27.85
2022-08-25T11:09:50.383Z,28.02
2022-08-25T11:12:24.337Z,28.05
2022-08-25T11:14:58.766Z,28.19
2022-08-25T11:17:27.967Z,28.26
2022-08-25T11:20:01.778Z,28.24
2022-08-25T11:22:45.834Z,28.17
2022-08-25T11:25:30.439Z,28.12
2022-08-25T11:28:26.472Z,28.37
2022-08-25T11:30:55.298Z,28.45
2022-08-25T11:33:24.042Z,28.58
2022-08-25T11:35:57.056Z,28.67
2022-08-25T11:38:57.226Z,28.74
2022-08-25T11:41:47.116Z,28.83
2022-08-25T11:44:18.023Z,29.07
2022-08-25T11:47:21.580Z,28.96
2022-08-25T11:50:02.238Z,28.89
2022-08-25T11:52:49.509Z,28.61
2022-08-25T11:55:30.784Z,28.69
2022-08-25T11:58:21.980Z,28.76
2022-08-25T12:00:49.112Z,28.58
2022-08-25T12:03:54.987Z,28.61
2022-08-25T12:06:34.500Z,28.72
2022-08-25T12:09:21.695Z,28.64
2022-08-25T12:11:58.394Z,29.03
2022-08-25T12:14:37.126Z,29.20
2022-08-25T12:17:22.439Z,29.27
2022-08-25T12:19:53.515Z,29.28
2022-08-25T12:22:41.014Z,29.60
2022-08-25T12:25:28.629Z,29.80
2022-08-25T12:28:05.559Z,29.71
2022-08-25T12:30:50.648Z,29.77
2022-08-25T12:33:54.524Z,29.81
2022-08-25T12:36:29.468Z,29.60
2022-08-25T12:39:19.270Z,29.37
2022-08-25T12:41:59.630Z,29.22
2022-08-25T12:44:41.354Z,29.19
2022-08-25T12:47:32.125Z,29.35
2022-08-25T12:50:37.301Z,29.67
2022-08-25T12:53:31.893Z,29.66
2022-08-25T12:56:05.072Z,29.47
2022-08-25T12:58:59.824Z,29.37
2022-08-25T13:01:45.126Z,29.43
2022-08-25T13:04:52.986Z,29.62
2022-08-25T13:07:42.792Z,29.77
2022-08-25T13:10:24.400Z,29.90
2022-08-25T13:13:00.198Z,29.65
2022-08-25T13:15:42.018Z,29.55
2022-08-25T13:18:33.634Z,29.74
2022-08-25T13:21:23.657Z,29.68
2022-08-25T13:23:54.086Z,29.56
2022-08-25T13:26:34.131Z,29.57
2022-08-25T13:29:12.320Z,29.48
2022-08-25T13:31:51.712Z,29.45
2022-08-25T13:34:23.350Z,29.40
2022-08-25T13:37:30.470Z,29.50
2022-08-25T13:40:26.074Z,29.55
2022-08-25T13:42:58.900Z,29.55
2022-08-25T13:45:31.857Z,29.52
2022-08-25T13:47:58.736Z,29.58
2022-08-25T13:50:38.267Z,29.48
2022-08-25T13:53:36.187Z,29.39
2022-08-25T13:56:04.390Z,29.46
2022-08-25T13:58:45.154Z,29.39
2022-08-25T14:01:48.704Z,29.22
2022-08-25T14:04:26.902Z,29.39
2022-08-25T14:07:33.651Z,29.43
2022-08-25T14:10:05.755Z,29.46
2022-08-25T14:12:45.684Z,29.57
2022-08-25T14:15:32.144Z,30.09
2022-08-25T14:18:06.734Z,30.28
2022-08-25T14:20:35.760Z,30.39
2022-08-25T14:23:16.256Z,30.48
2022-08-25T14:25:46.464Z,30.55
2022-08-25T14:28:17.984Z,30.29
2022-08-25T14:30:51.676Z,30.17
2022-08-25T14:33:20.832Z,30.12
2022-08-25T14:35:49.608Z,30.04
2022-08-25T14:38:17.799Z,29.79
2022-08-25T14:40:48.587Z,29.82
2022-08-25T14:43:17.514Z,29.78
2022-08-25T14:45:48.259Z,29.79
2022-08-25T14:48:42.591Z,29.70
2022-08-25T14:51:11.982Z,29.61
2022-08-25T14:53:38.790Z,29.51
2022-08-25T14:56:09.274Z,29.59
2022-08-25T14:58:50.796Z,29.56
2022-08-25T15:01:29.168Z,29.48
2022-08-25T15:04:01.751Z,29.44
2022-08-25T15:06:29.156Z,29.53
2022-08-25T15:09:08.313Z,29.55
2022-08-25T15:11:38.710Z,29.49
2022-08-25T15:14:10.766Z,29.72
2022-08-25T15:16:42.169Z,29.78
2022-08-25T15:19:11.930Z,29.98
2022-08-25T15:21:40.191Z,30.14
2022-08-25T15:24:11.187Z,30.17
2022-08-25T15:29:24.117Z,30.16
2022-08-25T15:31:51.805Z,30.28
2022-08-25T15:34:19.847Z,30.27
2022-08-25T15:36:46.896Z,30.39
2022-08-25T15:39:15.894Z,30.58
2022-08-25T15:41:49.525Z,30.76
2022-08-25T15:44:16.891Z,30.88
2022-08-25T15:46:49.557Z,30.79
2022-08-25T15:49:20.893Z,30.65
2022-08-25T15:51:50.308Z,30.70
2022-08-25T15:54:17.280Z,30.64
2022-08-25T15:56:46.667Z,30.56
2022-08-25T15:59:14.617Z,30.64
2022-08-25T16:01:42.070Z,30.74
2022-08-25T16:04:08.705Z,30.69
2022-08-25T16:06:37.001Z,30.57
2022-08-25T16:09:04.767Z,30.63
2022-08-25T16:11:33.788Z,30.65
2022-08-25T16:14:03.515Z,30.29
2022-08-25T16:16:31.506Z,30.24
2022-08-25T16:19:00.244Z,30.11
2022-08-25T16:21:32.239Z,29.93
2022-08-25T16:24:05.476Z,29.76
2022-08-25T16:26:36.880Z,29.92
2022-08-25T16:29:07.835Z,29.97
2022-08-25T16:31:37.099Z,29.77
2022-08-25T16:34:04.324Z,29.57
2022-08-25T16:36:31.858Z,29.55
2022-08-25T16:38:58.971Z,29.51
2022-08-25T16:41:34.460Z,29.55
2022-08-25T16:44:11.066Z,29.37
2022-08-25T16:46:44.422Z,29.42
2022-08-25T16:49:16.000Z,29.31
2022-08-25T16:51:43.585Z,29.34
2022-08-25T16:54:31.566Z,29.21
2022-08-25T16:57:02.381Z,29.25
2022-08-25T16:59:33.857Z,29.17
2022-08-25T17:02:00.637Z,29.14
2022-08-25T17:04:31.991Z,29.26
2022-08-25T17:07:01.991Z,29.21
2022-08-25T17:09:31.853Z,29.04
2022-08-25T17:11:59.563Z,29.20
2022-08-25T17:14:26.298Z,29.05
2022-08-25T17:16:55.220Z,29.11
2022-08-25T17:19:23.722Z,29.06
2022-08-25T17:21:51.290Z,29.07
2022-08-25T17:24:20.026Z,29.04
2022-08-25T17:26:51.697Z,28.94
2022-08-25T17:29:19.367Z,28.94
2022-08-25T17:31:49.138Z,28.86
2022-08-25T17:34:23.174Z,28.93
2022-08-25T17:36:50.895Z,28.84
2022-08-25T17:39:22.381Z,28.83
2022-08-25T17:41:50.743Z,28.77
2022-08-25T17:44:19.737Z,28.75
2022-08-25T17:46:48.072Z,28.76
2022-08-25T17:49:17.544Z,28.73
2022-08-25T17:51:45.099Z,28.45
2022-08-25T17:54:13.163Z,28.45
2022-08-25T17:56:40.230Z,28.46
2022-08-25T17:59:10.159Z,28.35
2022-08-25T18:01:42.212Z,28.37
2022-08-25T18:04:15.651Z,28.35
2022-08-25T18:06:48.136Z,28.28
2022-08-25T18:09:16.004Z,28.22
2022-08-25T18:11:42.669Z,28.16
2022-08-25T18:14:11.757Z,28.20
2022-08-25T18:16:39.016Z,28.15
2022-08-25T18:19:06.597Z,28.12
2022-08-25T18:21:36.870Z,28.11
2022-08-25T18:24:04.185Z,28.09
2022-08-25T18:26:31.620Z,28.07
2022-08-25T18:29:03.035Z,27.92
2022-08-25T18:31:29.949Z,27.81
2022-08-25T18:33:57.566Z,27.85
2022-08-25T18:36:24.186Z,27.86
2022-08-25T18:39:11.210Z,27.77
2022-08-25T18:41:42.616Z,27.75
2022-08-25T18:44:10.929Z,27.71
2022-08-25T18:46:39.536Z,27.79
2022-08-25T18:49:06.407Z,27.66
2022-08-25T18:51:33.384Z,27.69
2022-08-25T18:54:01.067Z,27.67
2022-08-25T18:56:29.456Z,27.48
2022-08-25T18:58:57.222Z,27.45
2022-08-25T19:01:24.138Z,27.37
2022-08-25T19:03:51.267Z,27.32
2022-08-25T19:06:19.425Z,27.23
2022-08-25T19:08:48.022Z,27.37
2022-08-25T19:11:15.997Z,27.28
2022-08-25T19:13:42.901Z,27.30
2022-08-25T19:16:20.358Z,27.09
2022-08-25T19:18:50.050Z,27.21
2022-08-25T19:21:22.658Z,27.15
2022-08-25T19:23:50.667Z,27.09
2022-08-25T19:26:18.056Z,27.11
2022-08-25T19:28:48.794Z,27.02
2022-08-25T19:31:18.371Z,27.00
2022-08-25T19:33:46.914Z,26.99
2022-08-25T19:36:22.912Z,27.08
2022-08-25T19:38:53.927Z,27.06
2022-08-25T19:41:22.471Z,27.10
2022-08-25T19:43:58.549Z,27.22
2022-08-25T19:46:36.620Z,27.07
2022-08-25T19:49:09.877Z,27.02
2022-08-25T19:51:50.482Z,26.94
2022-08-25T19:54:30.353Z,26.84
2022-08-25T19:57:01.552Z,26.84
2022-08-25T19:59:36.573Z,26.77
2022-08-25T20:02:17.377Z,26.66
2022-08-25T20:04:49.749Z,26.58
2022-08-25T20:07:25.764Z,26.65
2022-08-25T20:10:01.787Z,26.66
2022-08-25T20:12:38.343Z,26.55
2022-08-25T20:15:11.947Z,26.63
2022-08-25T20:17:47.220Z,26.56
2022-08-25T20:20:23.589Z,26.57
2022-08-25T20:23:17.660Z,26.42
2022-08-25T20:25:51.975Z,26.39
2022-08-25T20:28:26.025Z,26.30
2022-08-25T20:31:03.290Z,26.16
2022-08-25T20:33:37.222Z,26.06
2022-08-25T20:36:13.426Z,25.98
2022-08-25T20:38:47.318Z,25.96
2022-08-25T20:41:18.374Z,26.08
2022-08-25T20:43:50.007Z,26.23
2022-08-25T20:46:24.708Z,26.14
2022-08-25T20:49:00.400Z,26.17
2022-08-25T20:51:36.028Z,26.28
2022-08-25T20:54:11.345Z,26.20
2022-08-25T20:56:46.803Z,25.99
2022-08-25T20:59:20.306Z,25.89
2022-08-25T21:01:53.687Z,25.74
2022-08-25T21:04:28.947Z,25.68
2022-08-25T21:07:04.958Z,25.72
2022-08-25T21:09:40.719Z,25.72
2022-08-25T21:12:12.400Z,25.68
2022-08-25T21:14:47.017Z,25.60
2022-08-25T21:17:21.252Z,25.58
2022-08-25T21:19:55.704Z,25.51
2022-08-25T21:22:27.482Z,25.43
2022-08-25T21:25:03.450Z,25.42
2022-08-25T21:27:37.432Z,25.35
2022-08-25T21:30:10.694Z,25.40
2022-08-25T21:32:40.899Z,25.50
2022-08-25T21:35:28.200Z,25.47
2022-08-25T21:37:58.385Z,25.35
2022-08-25T21:40:30.801Z,25.29
2022-08-25T21:43:05.798Z,25.31
2022-08-25T21:45:46.649Z,25.22
2022-08-25T21:48:17.937Z,25.25
2022-08-25T21:50:48.476Z,25.26
2022-08-25T21:53:17.829Z,25.02
2022-08-25T21:55:44.873Z,24.97
2022-08-25T21:58:13.567Z,24.95
2022-08-25T22:00:44.264Z,25.03
2022-08-25T22:03:14.908Z,24.99
2022-08-25T22:05:46.008Z,25.05
2022-08-25T22:08:17.610Z,24.97
2022-08-25T22:10:48.584Z,24.84
2022-08-25T22:13:20.560Z,24.73
2022-08-25T22:15:52.025Z,24.77
2022-08-25T22:18:20.506Z,24.84
2022-08-25T22:20:51.029Z,24.74
2022-08-25T22:23:22.782Z,24.56
2022-08-25T22:25:57.710Z,24.63
2022-08-25T22:28:28.794Z,24.61
2022-08-25T22:30:57.284Z,24.61
2022-08-25T22:33:26.145Z,24.66
2022-08-25T22:35:59.830Z,24.74
2022-08-25T22:38:29.748Z,24.74
2022-08-25T22:41:04.621Z,24.67
2022-08-25T22:43:37.331Z,24.55
2022-08-25T22:46:08.524Z,24.58
2022-08-25T22:48:41.452Z,24.36
2022-08-25T22:51:13.215Z,24.36
2022-08-25T22:53:41.753Z,24.44
2022-08-25T22:56:12.756Z,24.31
2022-08-25T22:58:42.147Z,24.31
2022-08-25T23:01:20.849Z,24.29
2022-08-25T23:03:49.461Z,24.25
2022-08-25T23:06:22.682Z,24.27
2022-08-25T23:08:54.585Z,24.38
2022-08-25T23:11:25.214Z,24.30
2022-08-25T23:14:01.292Z,24.25
2022-08-25T23:16:31.869Z,24.14
2022-08-25T23:19:01.500Z,24.11
2022-08-25T23:21:50.206Z,24.09
2022-08-25T23:24:30.192Z,24.16
2022-08-25T23:27:03.745Z,24.05
2022-08-25T23:29:33.085Z,24.19
2022-08-25T23:32:03.508Z,24.20
2022-08-25T23:34:33.912Z,24.26
2022-08-25T23:37:04.271Z,24.03
2022-08-25T23:39:34.672Z,23.92
2022-08-25T23:42:08.945Z,23.94
2022-08-25T23:44:37.380Z,23.94
2022-08-25T23:47:08.047Z,23.96
2022-08-25T23:49:39.949Z,23.94
2022-08-25T23:52:09.028Z,23.92
2022-08-25T23:54:39.197Z,23.82
2022-08-25T23:57:09.567Z,23.65
2022-08-25T23:59:40.347Z,23.64
